sensor_id;sensor_type;location;lat;lon;timestamp;P1;durP1;ratioP1;P2;durP2;ratioP2
37409;SDS011;23275;48.914;12.566;2023-09-12T00:00:42;14.77;;;12.05;;
37409;SDS011;23275;48.914;12.566;2023-09-12T00:03:08;14.05;;;11.70;;
37409;SDS011;23275;48.914;12.566;2023-09-12T00:05:34;13.57;;;11.25;;
37409;SDS011;23275;48.914;12.566;2023-09-12T00:07:59;14.43;;;11.77;;
37409;SDS011;23275;48.914;12.566;2023-09-12T00:10:25;15.52;;;12.68;;
37409;SDS011;23275;48.914;12.566;2023-09-12T00:12:51;13.07;;;11.77;;
37409;SDS011;23275;48.914;12.566;2023-09-12T00:15:16;13.13;;;11.73;;
37409;SDS011;23275;48.914;12.566;2023-09-12T00:17:43;12.70;;;11.40;;
37409;SDS011;23275;48.914;12.566;2023-09-12T00:20:08;13.80;;;12.30;;
37409;SDS011;23275;48.914;12.566;2023-09-12T00:22:34;14.40;;;11.52;;
37409;SDS011;23275;48.914;12.566;2023-09-12T00:25:00;14.23;;;11.60;;
37409;SDS011;23275;48.914;12.566;2023-09-12T00:27:25;14.70;;;11.90;;
37409;SDS011;23275;48.914;12.566;2023-09-12T00:29:51;12.93;;;11.63;;
37409;SDS011;23275;48.914;12.566;2023-09-12T00:32:16;12.82;;;10.98;;
37409;SDS011;23275;48.914;12.566;2023-09-12T00:34:42;14.07;;;11.18;;
37409;SDS011;23275;48.914;12.566;2023-09-12T00:37:07;13.75;;;10.02;;
37409;SDS011;23275;48.914;12.566;2023-09-12T00:39:33;12.05;;;10.82;;
37409;SDS011;23275;48.914;12.566;2023-09-12T00:41:58;13.23;;;10.70;;
37409;SDS011;23275;48.914;12.566;2023-09-12T00:44:24;13.02;;;11.02;;
37409;SDS011;23275;48.914;12.566;2023-09-12T00:46:50;13.18;;;11.80;;
37409;SDS011;23275;48.914;12.566;2023-09-12T00:49:17;11.88;;;10.38;;
37409;SDS011;23275;48.914;12.566;2023-09-12T00:51:44;12.68;;;10.98;;
37409;SDS011;23275;48.914;12.566;2023-09-12T00:54:13;12.68;;;11.23;;
37409;SDS011;23275;48.914;12.566;2023-09-12T00:56:39;14.15;;;11.18;;
37409;SDS011;23275;48.914;12.566;2023-09-12T00:59:05;11.75;;;10.55;;
37409;SDS011;23275;48.914;12.566;2023-09-12T01:01:31;13.27;;;10.80;;
37409;SDS011;23275;48.914;12.566;2023-09-12T01:03:57;13.27;;;10.52;;
37409;SDS011;23275;48.914;12.566;2023-09-12T01:06:23;12.18;;;10.85;;
37409;SDS011;23275;48.914;12.566;2023-09-12T01:08:51;14.18;;;10.63;;
37409;SDS011;23275;48.914;12.566;2023-09-12T01:11:17;13.20;;;10.63;;
37409;SDS011;23275;48.914;12.566;2023-09-12T01:13:45;12.05;;;10.27;;
37409;SDS011;23275;48.914;12.566;2023-09-12T01:16:10;12.10;;;10.32;;
37409;SDS011;23275;48.914;12.566;2023-09-12T01:18:36;13.52;;;10.75;;
37409;SDS011;23275;48.914;12.566;2023-09-12T01:29:10;12.90;;;11.60;;
37409;SDS011;23275;48.914;12.566;2023-09-12T01:31:38;11.82;;;10.60;;
37409;SDS011;23275;48.914;12.566;2023-09-12T01:34:09;12.85;;;10.73;;
37409;SDS011;23275;48.914;12.566;2023-09-12T01:36:35;12.88;;;11.40;;
37409;SDS011;23275;48.914;12.566;2023-09-12T01:39:01;12.98;;;11.20;;
37409;SDS011;23275;48.914;12.566;2023-09-12T01:41:27;13.85;;;11.23;;
37409;SDS011;23275;48.914;12.566;2023-09-12T01:43:56;11.32;;;10.05;;
37409;SDS011;23275;48.914;12.566;2023-09-12T01:46:22;11.38;;;9.65;;
37409;SDS011;23275;48.914;12.566;2023-09-12T01:48:48;11.98;;;10.10;;
37409;SDS011;23275;48.914;12.566;2023-09-12T01:51:16;13.65;;;9.90;;
37409;SDS011;23275;48.914;12.566;2023-09-12T01:53:44;14.95;;;11.18;;
37409;SDS011;23275;48.914;12.566;2023-09-12T01:56:11;10.10;;;8.85;;
37409;SDS011;23275;48.914;12.566;2023-09-12T01:58:38;12.13;;;9.75;;
37409;SDS011;23275;48.914;12.566;2023-09-12T02:01:04;12.00;;;9.80;;
37409;SDS011;23275;48.914;12.566;2023-09-12T02:03:30;12.45;;;10.75;;
37409;SDS011;23275;48.914;12.566;2023-09-12T02:05:55;12.85;;;9.95;;
37409;SDS011;23275;48.914;12.566;2023-09-12T02:08:21;13.27;;;10.75;;
37409;SDS011;23275;48.914;12.566;2023-09-12T02:10:47;12.25;;;10.32;;
37409;SDS011;23275;48.914;12.566;2023-09-12T02:13:12;12.02;;;10.57;;
37409;SDS011;23275;48.914;12.566;2023-09-12T02:15:38;13.43;;;10.95;;
37409;SDS011;23275;48.914;12.566;2023-09-12T02:18:03;12.98;;;11.48;;
37409;SDS011;23275;48.914;12.566;2023-09-12T02:20:29;13.10;;;11.13;;
37409;SDS011;23275;48.914;12.566;2023-09-12T02:22:56;14.88;;;12.05;;
37409;SDS011;23275;48.914;12.566;2023-09-12T02:25:21;11.82;;;10.25;;
37409;SDS011;23275;48.914;12.566;2023-09-12T02:27:47;11.15;;;9.88;;
37409;SDS011;23275;48.914;12.566;2023-09-12T02:30:12;11.02;;;9.85;;
37409;SDS011;23275;48.914;12.566;2023-09-12T02:32:38;14.32;;;11.70;;
37409;SDS011;23275;48.914;12.566;2023-09-12T02:35:03;11.98;;;10.57;;
37409;SDS011;23275;48.914;12.566;2023-09-12T02:37:29;12.45;;;11.15;;
37409;SDS011;23275;48.914;12.566;2023-09-12T02:39:55;11.23;;;9.73;;
37409;SDS011;23275;48.914;12.566;2023-09-12T02:42:20;13.77;;;11.30;;
37409;SDS011;23275;48.914;12.566;2023-09-12T02:44:46;11.65;;;10.45;;
37409;SDS011;23275;48.914;12.566;2023-09-12T02:47:12;10.15;;;8.60;;
37409;SDS011;23275;48.914;12.566;2023-09-12T02:49:38;11.13;;;8.32;;
37409;SDS011;23275;48.914;12.566;2023-09-12T02:52:03;10.60;;;9.50;;
37409;SDS011;23275;48.914;12.566;2023-09-12T02:54:29;12.48;;;9.35;;
37409;SDS011;23275;48.914;12.566;2023-09-12T02:56:54;12.32;;;9.48;;
37409;SDS011;23275;48.914;12.566;2023-09-12T02:59:20;11.85;;;9.27;;
37409;SDS011;23275;48.914;12.566;2023-09-12T03:01:46;11.73;;;9.32;;
37409;SDS011;23275;48.914;12.566;2023-09-12T03:04:11;14.82;;;10.10;;
37409;SDS011;23275;48.914;12.566;2023-09-12T03:06:37;12.05;;;10.77;;
37409;SDS011;23275;48.914;12.566;2023-09-12T03:09:02;13.52;;;11.23;;
37409;SDS011;23275;48.914;12.566;2023-09-12T03:11:28;12.88;;;11.48;;
37409;SDS011;23275;48.914;12.566;2023-09-12T03:13:54;13.05;;;10.77;;
37409;SDS011;23275;48.914;12.566;2023-09-12T03:16:20;14.57;;;12.88;;
37409;SDS011;23275;48.914;12.566;2023-09-12T03:18:46;13.80;;;11.90;;
37409;SDS011;23275;48.914;12.566;2023-09-12T03:21:11;13.38;;;11.98;;
37409;SDS011;23275;48.914;12.566;2023-09-12T03:23:37;16.30;;;12.00;;
37409;SDS011;23275;48.914;12.566;2023-09-12T03:26:03;13.75;;;11.90;;
37409;SDS011;23275;48.914;12.566;2023-09-12T03:28:29;14.18;;;12.20;;
37409;SDS011;23275;48.914;12.566;2023-09-12T03:31:08;16.85;;;12.88;;
37409;SDS011;23275;48.914;12.566;2023-09-12T03:33:37;17.13;;;12.65;;
37409;SDS011;23275;48.914;12.566;2023-09-12T03:36:03;16.83;;;12.55;;
37409;SDS011;23275;48.914;12.566;2023-09-12T03:38:29;13.00;;;11.70;;
37409;SDS011;23275;48.914;12.566;2023-09-12T03:40:55;14.95;;;12.65;;
37409;SDS011;23275;48.914;12.566;2023-09-12T03:43:20;14.43;;;12.63;;
37409;SDS011;23275;48.914;12.566;2023-09-12T03:45:46;14.10;;;12.60;;
37409;SDS011;23275;48.914;12.566;2023-09-12T03:48:11;13.60;;;12.13;;
37409;SDS011;23275;48.914;12.566;2023-09-12T03:50:37;13.48;;;12.07;;
37409;SDS011;23275;48.914;12.566;2023-09-12T03:53:03;12.75;;;11.45;;
37409;SDS011;23275;48.914;12.566;2023-09-12T03:55:28;13.68;;;12.27;;
37409;SDS011;23275;48.914;12.566;2023-09-12T03:57:54;15.80;;;12.52;;
37409;SDS011;23275;48.914;12.566;2023-09-12T04:00:19;15.70;;;12.40;;
37409;SDS011;23275;48.914;12.566;2023-09-12T04:02:45;14.27;;;11.77;;
37409;SDS011;23275;48.914;12.566;2023-09-12T04:05:10;13.75;;;11.10;;
37409;SDS011;23275;48.914;12.566;2023-09-12T04:07:36;12.25;;;10.50;;
37409;SDS011;23275;48.914;12.566;2023-09-12T04:10:01;11.18;;;9.60;;
37409;SDS011;23275;48.914;12.566;2023-09-12T04:12:27;9.07;;;8.10;;
37409;SDS011;23275;48.914;12.566;2023-09-12T04:14:53;11.65;;;9.80;;
37409;SDS011;23275;48.914;12.566;2023-09-12T04:17:20;10.63;;;9.02;;
37409;SDS011;23275;48.914;12.566;2023-09-12T04:19:45;9.73;;;7.57;;
37409;SDS011;23275;48.914;12.566;2023-09-12T04:22:11;10.43;;;8.40;;
37409;SDS011;23275;48.914;12.566;2023-09-12T04:24:36;10.68;;;8.30;;
37409;SDS011;23275;48.914;12.566;2023-09-12T04:27:02;7.85;;;7.03;;
37409;SDS011;23275;48.914;12.566;2023-09-12T04:29:28;5.68;;;5.15;;
37409;SDS011;23275;48.914;12.566;2023-09-12T04:31:54;7.88;;;6.10;;
37409;SDS011;23275;48.914;12.566;2023-09-12T04:34:24;9.23;;;7.75;;
37409;SDS011;23275;48.914;12.566;2023-09-12T04:36:50;9.27;;;8.27;;
37409;SDS011;23275;48.914;12.566;2023-09-12T04:39:17;10.10;;;9.13;;
37409;SDS011;23275;48.914;12.566;2023-09-12T04:41:42;13.02;;;10.68;;
37409;SDS011;23275;48.914;12.566;2023-09-12T04:44:08;10.95;;;9.48;;
37409;SDS011;23275;48.914;12.566;2023-09-12T04:46:33;9.48;;;8.45;;
37409;SDS011;23275;48.914;12.566;2023-09-12T04:48:59;10.77;;;9.07;;
37409;SDS011;23275;48.914;12.566;2023-09-12T04:51:24;9.70;;;8.50;;
37409;SDS011;23275;48.914;12.566;2023-09-12T04:53:52;8.45;;;7.55;;
37409;SDS011;23275;48.914;12.566;2023-09-12T04:56:17;11.70;;;6.63;;
37409;SDS011;23275;48.914;12.566;2023-09-12T04:58:43;19.98;;;7.20;;
37409;SDS011;23275;48.914;12.566;2023-09-12T05:01:09;9.57;;;8.25;;
37409;SDS011;23275;48.914;12.566;2023-09-12T05:03:35;12.10;;;8.98;;
37409;SDS011;23275;48.914;12.566;2023-09-12T05:06:00;11.57;;;10.35;;
37409;SDS011;23275;48.914;12.566;2023-09-12T05:08:26;7.43;;;6.60;;
37409;SDS011;23275;48.914;12.566;2023-09-12T05:10:52;11.18;;;9.15;;
37409;SDS011;23275;48.914;12.566;2023-09-12T05:13:17;10.68;;;9.05;;
37409;SDS011;23275;48.914;12.566;2023-09-12T05:15:43;9.70;;;7.85;;
37409;SDS011;23275;48.914;12.566;2023-09-12T05:18:09;11.00;;;8.73;;
37409;SDS011;23275;48.914;12.566;2023-09-12T05:20:35;9.93;;;8.00;;
37409;SDS011;23275;48.914;12.566;2023-09-12T05:23:01;10.98;;;9.13;;
37409;SDS011;23275;48.914;12.566;2023-09-12T05:25:27;13.85;;;9.57;;
37409;SDS011;23275;48.914;12.566;2023-09-12T05:27:52;11.50;;;8.82;;
37409;SDS011;23275;48.914;12.566;2023-09-12T05:30:18;10.05;;;8.98;;
37409;SDS011;23275;48.914;12.566;2023-09-12T05:32:43;12.63;;;9.35;;
37409;SDS011;23275;48.914;12.566;2023-09-12T05:35:09;10.77;;;8.77;;
37409;SDS011;23275;48.914;12.566;2023-09-12T05:37:35;15.70;;;10.35;;
37409;SDS011;23275;48.914;12.566;2023-09-12T05:40:00;12.73;;;9.02;;
37409;SDS011;23275;48.914;12.566;2023-09-12T05:42:26;13.95;;;9.95;;
37409;SDS011;23275;48.914;12.566;2023-09-12T05:44:52;10.85;;;9.18;;
37409;SDS011;23275;48.914;12.566;2023-09-12T05:47:21;11.30;;;9.95;;
37409;SDS011;23275;48.914;12.566;2023-09-12T05:49:47;10.07;;;8.95;;
37409;SDS011;23275;48.914;12.566;2023-09-12T05:52:12;11.50;;;9.75;;
37409;SDS011;23275;48.914;12.566;2023-09-12T05:54:38;10.88;;;9.48;;
37409;SDS011;23275;48.914;12.566;2023-09-12T05:57:05;11.50;;;9.40;;
37409;SDS011;23275;48.914;12.566;2023-09-12T05:59:31;12.82;;;9.65;;
37409;SDS011;23275;48.914;12.566;2023-09-12T06:01:58;11.88;;;9.77;;
37409;SDS011;23275;48.914;12.566;2023-09-12T06:04:23;12.90;;;10.48;;
37409;SDS011;23275;48.914;12.566;2023-09-12T06:06:49;10.70;;;9.60;;
37409;SDS011;23275;48.914;12.566;2023-09-12T06:09:14;14.40;;;10.10;;
37409;SDS011;23275;48.914;12.566;2023-09-12T06:11:40;15.82;;;10.55;;
37409;SDS011;23275;48.914;12.566;2023-09-12T06:14:05;14.88;;;10.73;;
37409;SDS011;23275;48.914;12.566;2023-09-12T06:16:31;15.25;;;10.98;;
37409;SDS011;23275;48.914;12.566;2023-09-12T06:18:56;23.23;;;12.57;;
37409;SDS011;23275;48.914;12.566;2023-09-12T06:21:22;14.80;;;12.13;;
37409;SDS011;23275;48.914;12.566;2023-09-12T06:23:48;14.98;;;12.57;;
37409;SDS011;23275;48.914;12.566;2023-09-12T06:26:32;13.10;;;11.70;;
37409;SDS011;23275;48.914;12.566;2023-09-12T06:28:58;16.17;;;12.38;;
37409;SDS011;23275;48.914;12.566;2023-09-12T06:31:24;17.88;;;13.38;;
37409;SDS011;23275;48.914;12.566;2023-09-12T06:33:49;17.15;;;13.18;;
37409;SDS011;23275;48.914;12.566;2023-09-12T06:36:15;18.02;;;14.70;;
37409;SDS011;23275;48.914;12.566;2023-09-12T06:38:40;15.68;;;13.52;;
37409;SDS011;23275;48.914;12.566;2023-09-12T06:41:06;15.55;;;13.90;;
37409;SDS011;23275;48.914;12.566;2023-09-12T06:43:31;19.17;;;12.65;;
37409;SDS011;23275;48.914;12.566;2023-09-12T06:45:57;18.58;;;13.32;;
37409;SDS011;23275;48.914;12.566;2023-09-12T06:48:22;16.08;;;12.43;;
37409;SDS011;23275;48.914;12.566;2023-09-12T06:50:48;15.60;;;13.00;;
37409;SDS011;23275;48.914;12.566;2023-09-12T06:53:15;18.25;;;12.52;;
37409;SDS011;23275;48.914;12.566;2023-09-12T06:55:40;16.63;;;12.30;;
37409;SDS011;23275;48.914;12.566;2023-09-12T06:58:06;14.98;;;12.68;;
37409;SDS011;23275;48.914;12.566;2023-09-12T07:00:32;14.65;;;13.10;;
37409;SDS011;23275;48.914;12.566;2023-09-12T07:02:58;16.98;;;13.60;;
37409;SDS011;23275;48.914;12.566;2023-09-12T07:05:24;16.38;;;13.00;;
37409;SDS011;23275;48.914;12.566;2023-09-12T07:07:49;13.75;;;11.25;;
37409;SDS011;23275;48.914;12.566;2023-09-12T07:10:15;26.00;;;14.02;;
37409;SDS011;23275;48.914;12.566;2023-09-12T07:12:41;15.88;;;11.73;;
37409;SDS011;23275;48.914;12.566;2023-09-12T07:15:07;14.55;;;12.13;;
37409;SDS011;23275;48.914;12.566;2023-09-12T07:17:32;17.08;;;12.88;;
37409;SDS011;23275;48.914;12.566;2023-09-12T07:19:58;21.48;;;12.80;;
37409;SDS011;23275;48.914;12.566;2023-09-12T07:22:23;14.95;;;13.23;;
37409;SDS011;23275;48.914;12.566;2023-09-12T07:24:49;17.35;;;13.65;;
37409;SDS011;23275;48.914;12.566;2023-09-12T07:27:14;17.70;;;13.80;;
37409;SDS011;23275;48.914;12.566;2023-09-12T07:29:40;21.20;;;16.25;;
37409;SDS011;23275;48.914;12.566;2023-09-12T07:32:06;15.82;;;12.30;;
37409;SDS011;23275;48.914;12.566;2023-09-12T07:34:31;12.43;;;11.15;;
37409;SDS011;23275;48.914;12.566;2023-09-12T07:36:58;16.35;;;10.98;;
37409;SDS011;23275;48.914;12.566;2023-09-12T07:39:23;13.32;;;10.90;;
37409;SDS011;23275;48.914;12.566;2023-09-12T07:41:49;13.25;;;10.93;;
37409;SDS011;23275;48.914;12.566;2023-09-12T07:44:15;13.05;;;10.45;;
37409;SDS011;23275;48.914;12.566;2023-09-12T07:46:41;12.88;;;11.18;;
37409;SDS011;23275;48.914;12.566;2023-09-12T07:49:08;16.02;;;12.23;;
37409;SDS011;23275;48.914;12.566;2023-09-12T07:51:34;14.60;;;11.57;;
37409;SDS011;23275;48.914;12.566;2023-09-12T07:54:00;13.23;;;11.50;;
37409;SDS011;23275;48.914;12.566;2023-09-12T07:56:26;15.02;;;11.57;;
37409;SDS011;23275;48.914;12.566;2023-09-12T07:58:52;14.38;;;12.18;;
37409;SDS011;23275;48.914;12.566;2023-09-12T08:01:19;14.55;;;11.63;;
37409;SDS011;23275;48.914;12.566;2023-09-12T08:03:44;14.30;;;11.55;;
37409;SDS011;23275;48.914;12.566;2023-09-12T08:06:10;14.95;;;11.93;;
37409;SDS011;23275;48.914;12.566;2023-09-12T08:08:42;17.33;;;12.82;;
37409;SDS011;23275;48.914;12.566;2023-09-12T08:11:08;13.18;;;11.73;;
37409;SDS011;23275;48.914;12.566;2023-09-12T08:13:34;14.23;;;12.70;;
37409;SDS011;23275;48.914;12.566;2023-09-12T08:15:59;14.30;;;11.43;;
37409;SDS011;23275;48.914;12.566;2023-09-12T08:18:26;18.25;;;12.45;;
37409;SDS011;23275;48.914;12.566;2023-09-12T08:20:54;17.83;;;12.52;;
37409;SDS011;23275;48.914;12.566;2023-09-12T08:23:23;13.02;;;10.90;;
37409;SDS011;23275;48.914;12.566;2023-09-12T08:25:49;13.30;;;11.07;;
37409;SDS011;23275;48.914;12.566;2023-09-12T08:28:18;12.73;;;11.10;;
37409;SDS011;23275;48.914;12.566;2023-09-12T08:30:44;13.45;;;10.93;;
37409;SDS011;23275;48.914;12.566;2023-09-12T08:33:13;14.83;;;11.23;;
37409;SDS011;23275;48.914;12.566;2023-09-12T08:35:39;17.10;;;11.23;;
37409;SDS011;23275;48.914;12.566;2023-09-12T08:38:05;13.05;;;11.07;;
37409;SDS011;23275;48.914;12.566;2023-09-12T08:40:32;14.02;;;9.93;;
37409;SDS011;23275;48.914;12.566;2023-09-12T08:42:57;11.98;;;10.73;;
37409;SDS011;23275;48.914;12.566;2023-09-12T08:45:23;12.32;;;10.98;;
37409;SDS011;23275;48.914;12.566;2023-09-12T08:47:50;12.10;;;9.48;;
37409;SDS011;23275;48.914;12.566;2023-09-12T08:50:18;12.80;;;11.02;;
37409;SDS011;23275;48.914;12.566;2023-09-12T08:52:46;13.23;;;10.73;;
37409;SDS011;23275;48.914;12.566;2023-09-12T08:55:12;15.75;;;9.65;;
37409;SDS011;23275;48.914;12.566;2023-09-12T08:57:38;11.23;;;9.52;;
37409;SDS011;23275;48.914;12.566;2023-09-12T09:00:05;10.27;;;9.15;;
37409;SDS011;23275;48.914;12.566;2023-09-12T09:02:33;10.45;;;9.35;;
37409;SDS011;23275;48.914;12.566;2023-09-12T09:05:00;11.02;;;9.23;;
37409;SDS011;23275;48.914;12.566;2023-09-12T09:07:29;15.13;;;10.55;;
37409;SDS011;23275;48.914;12.566;2023-09-12T09:09:57;13.02;;;9.20;;
37409;SDS011;23275;48.914;12.566;2023-09-12T09:12:23;11.82;;;9.52;;
37409;SDS011;23275;48.914;12.566;2023-09-12T09:14:48;10.07;;;8.85;;
37409;SDS011;23275;48.914;12.566;2023-09-12T09:17:14;15.43;;;9.90;;
37409;SDS011;23275;48.914;12.566;2023-09-12T09:19:41;9.32;;;8.38;;
37409;SDS011;23275;48.914;12.566;2023-09-12T09:22:08;11.30;;;9.35;;
37409;SDS011;23275;48.914;12.566;2023-09-12T09:24:33;9.73;;;8.82;;
37409;SDS011;23275;48.914;12.566;2023-09-12T09:26:59;10.75;;;7.78;;
37409;SDS011;23275;48.914;12.566;2023-09-12T09:29:26;10.20;;;8.43;;
37409;SDS011;23275;48.914;12.566;2023-09-12T09:31:58;8.52;;;7.63;;
37409;SDS011;23275;48.914;12.566;2023-09-12T09:34:30;9.40;;;7.32;;
37409;SDS011;23275;48.914;12.566;2023-09-12T09:36:57;8.90;;;7.88;;
37409;SDS011;23275;48.914;12.566;2023-09-12T09:39:23;8.18;;;7.28;;
37409;SDS011;23275;48.914;12.566;2023-09-12T09:41:51;11.25;;;7.72;;
37409;SDS011;23275;48.914;12.566;2023-09-12T09:44:21;13.27;;;7.50;;
37409;SDS011;23275;48.914;12.566;2023-09-12T09:46:52;9.00;;;7.90;;
37409;SDS011;23275;48.914;12.566;2023-09-12T09:49:20;8.68;;;7.15;;
37409;SDS011;23275;48.914;12.566;2023-09-12T09:51:46;7.55;;;6.85;;
37409;SDS011;23275;48.914;12.566;2023-09-12T09:54:13;8.43;;;7.35;;
37409;SDS011;23275;48.914;12.566;2023-09-12T09:59:13;8.30;;;7.50;;
37409;SDS011;23275;48.914;12.566;2023-09-12T10:01:44;8.55;;;7.18;;
37409;SDS011;23275;48.914;12.566;2023-09-12T10:04:10;9.13;;;6.70;;
37409;SDS011;23275;48.914;12.566;2023-09-12T10:06:37;9.95;;;7.85;;
37409;SDS011;23275;48.914;12.566;2023-09-12T10:09:07;7.80;;;6.63;;
37409;SDS011;23275;48.914;12.566;2023-09-12T10:14:02;7.72;;;6.07;;
37409;SDS011;23275;48.914;12.566;2023-09-12T10:16:30;9.07;;;6.13;;
37409;SDS011;23275;48.914;12.566;2023-09-12T10:21:53;7.30;;;6.32;;
37409;SDS011;23275;48.914;12.566;2023-09-12T10:24:39;9.05;;;6.93;;
37409;SDS011;23275;48.914;12.566;2023-09-12T10:27:06;8.48;;;6.45;;
37409;SDS011;23275;48.914;12.566;2023-09-12T10:29:31;10.98;;;7.10;;
37409;SDS011;23275;48.914;12.566;2023-09-12T10:31:57;8.23;;;7.40;;
37409;SDS011;23275;48.914;12.566;2023-09-12T10:34:24;8.85;;;7.10;;
37409;SDS011;23275;48.914;12.566;2023-09-12T10:36:51;9.88;;;6.85;;
37409;SDS011;23275;48.914;12.566;2023-09-12T10:39:18;10.48;;;6.97;;
37409;SDS011;23275;48.914;12.566;2023-09-12T10:41:45;9.65;;;7.38;;
37409;SDS011;23275;48.914;12.566;2023-09-12T10:44:14;7.40;;;6.43;;
37409;SDS011;23275;48.914;12.566;2023-09-12T10:46:41;6.82;;;6.22;;
37409;SDS011;23275;48.914;12.566;2023-09-12T10:49:10;10.38;;;7.30;;
37409;SDS011;23275;48.914;12.566;2023-09-12T10:51:38;9.55;;;6.40;;
37409;SDS011;23275;48.914;12.566;2023-09-12T10:54:12;9.07;;;6.35;;
37409;SDS011;23275;48.914;12.566;2023-09-12T10:57:01;8.27;;;6.30;;
37409;SDS011;23275;48.914;12.566;2023-09-12T10:59:28;8.68;;;7.22;;
37409;SDS011;23275;48.914;12.566;2023-09-12T11:01:56;8.05;;;6.40;;
37409;SDS011;23275;48.914;12.566;2023-09-12T11:05:50;7.65;;;6.45;;
37409;SDS011;23275;48.914;12.566;2023-09-12T11:07:59;9.02;;;6.70;;
37409;SDS011;23275;48.914;12.566;2023-09-12T11:10:27;10.52;;;6.50;;
37409;SDS011;23275;48.914;12.566;2023-09-12T11:12:54;10.45;;;7.70;;
37409;SDS011;23275;48.914;12.566;2023-09-12T11:15:22;7.28;;;6.57;;
37409;SDS011;23275;48.914;12.566;2023-09-12T11:18:00;8.80;;;7.35;;
37409;SDS011;23275;48.914;12.566;2023-09-12T11:20:52;9.00;;;6.97;;
37409;SDS011;23275;48.914;12.566;2023-09-12T11:23:24;8.30;;;7.03;;
37409;SDS011;23275;48.914;12.566;2023-09-12T11:26:02;11.10;;;8.20;;
37409;SDS011;23275;48.914;12.566;2023-09-12T11:30:56;10.10;;;7.32;;
37409;SDS011;23275;48.914;12.566;2023-09-12T11:33:23;11.25;;;7.55;;
37409;SDS011;23275;48.914;12.566;2023-09-12T11:35:51;11.07;;;8.10;;
37409;SDS011;23275;48.914;12.566;2023-09-12T11:38:25;10.27;;;7.25;;
37409;SDS011;23275;48.914;12.566;2023-09-12T11:40:53;9.75;;;8.63;;
37409;SDS011;23275;48.914;12.566;2023-09-12T11:43:22;10.20;;;7.15;;
37409;SDS011;23275;48.914;12.566;2023-09-12T11:45:49;7.55;;;6.65;;
37409;SDS011;23275;48.914;12.566;2023-09-12T11:48:16;9.20;;;8.07;;
37409;SDS011;23275;48.914;12.566;2023-09-12T11:50:42;8.48;;;7.50;;
37409;SDS011;23275;48.914;12.566;2023-09-12T11:53:13;8.07;;;7.15;;
37409;SDS011;23275;48.914;12.566;2023-09-12T11:55:43;9.05;;;7.72;;
37409;SDS011;23275;48.914;12.566;2023-09-12T11:58:13;9.55;;;7.10;;
37409;SDS011;23275;48.914;12.566;2023-09-12T12:00:44;9.55;;;7.80;;
37409;SDS011;23275;48.914;12.566;2023-09-12T12:03:17;11.45;;;7.68;;
37409;SDS011;23275;48.914;12.566;2023-09-12T12:05:44;9.40;;;8.23;;
37409;SDS011;23275;48.914;12.566;2023-09-12T12:08:11;9.75;;;7.22;;
37409;SDS011;23275;48.914;12.566;2023-09-12T12:10:37;8.93;;;7.05;;
37409;SDS011;23275;48.914;12.566;2023-09-12T12:13:06;7.70;;;6.90;;
37409;SDS011;23275;48.914;12.566;2023-09-12T12:15:41;8.80;;;6.60;;
37409;SDS011;23275;48.914;12.566;2023-09-12T12:18:07;9.40;;;7.32;;
37409;SDS011;23275;48.914;12.566;2023-09-12T12:20:33;8.68;;;7.63;;
37409;SDS011;23275;48.914;12.566;2023-09-12T12:22:58;8.73;;;7.47;;
37409;SDS011;23275;48.914;12.566;2023-09-12T12:25:24;8.50;;;7.15;;
37409;SDS011;23275;48.914;12.566;2023-09-12T12:27:50;9.93;;;7.28;;
37409;SDS011;23275;48.914;12.566;2023-09-12T12:30:15;7.93;;;7.10;;
37409;SDS011;23275;48.914;12.566;2023-09-12T12:32:43;11.70;;;7.15;;
37409;SDS011;23275;48.914;12.566;2023-09-12T12:35:20;8.68;;;7.32;;
37409;SDS011;23275;48.914;12.566;2023-09-12T12:37:49;8.15;;;6.80;;
37409;SDS011;23275;48.914;12.566;2023-09-12T12:40:16;10.60;;;7.60;;
37409;SDS011;23275;48.914;12.566;2023-09-12T12:42:44;13.10;;;7.47;;
37409;SDS011;23275;48.914;12.566;2023-09-12T12:47:42;8.65;;;7.75;;
37409;SDS011;23275;48.914;12.566;2023-09-12T12:50:10;11.00;;;7.03;;
37409;SDS011;23275;48.914;12.566;2023-09-12T12:52:38;8.20;;;6.50;;
37409;SDS011;23275;48.914;12.566;2023-09-12T12:55:08;10.02;;;6.85;;
37409;SDS011;23275;48.914;12.566;2023-09-12T12:57:36;8.20;;;7.07;;
37409;SDS011;23275;48.914;12.566;2023-09-12T13:00:09;7.60;;;6.65;;
37409;SDS011;23275;48.914;12.566;2023-09-12T13:02:40;12.27;;;7.70;;
37409;SDS011;23275;48.914;12.566;2023-09-12T13:05:18;10.55;;;7.50;;
37409;SDS011;23275;48.914;12.566;2023-09-12T13:07:47;8.13;;;7.32;;
37409;SDS011;23275;48.914;12.566;2023-09-12T13:10:14;6.82;;;5.97;;
37409;SDS011;23275;48.914;12.566;2023-09-12T13:12:39;8.40;;;6.70;;
37409;SDS011;23275;48.914;12.566;2023-09-12T13:15:05;9.15;;;6.72;;
37409;SDS011;23275;48.914;12.566;2023-09-12T13:17:31;8.68;;;6.80;;
37409;SDS011;23275;48.914;12.566;2023-09-12T13:19:56;10.00;;;6.97;;
37409;SDS011;23275;48.914;12.566;2023-09-12T13:22:22;9.32;;;6.63;;
37409;SDS011;23275;48.914;12.566;2023-09-12T13:24:47;7.38;;;6.45;;
37409;SDS011;23275;48.914;12.566;2023-09-12T13:27:13;8.63;;;6.88;;
37409;SDS011;23275;48.914;12.566;2023-09-12T13:29:39;8.52;;;6.93;;
37409;SDS011;23275;48.914;12.566;2023-09-12T13:32:05;8.18;;;7.03;;
37409;SDS011;23275;48.914;12.566;2023-09-12T13:34:31;9.27;;;6.75;;
37409;SDS011;23275;48.914;12.566;2023-09-12T13:36:56;7.78;;;6.70;;
37409;SDS011;23275;48.914;12.566;2023-09-12T13:39:23;9.02;;;7.32;;
37409;SDS011;23275;48.914;12.566;2023-09-12T13:41:49;8.98;;;6.70;;
37409;SDS011;23275;48.914;12.566;2023-09-12T13:44:14;9.48;;;6.68;;
37409;SDS011;23275;48.914;12.566;2023-09-12T13:46:41;8.80;;;7.18;;
37409;SDS011;23275;48.914;12.566;2023-09-12T13:49:09;11.38;;;7.30;;
37409;SDS011;23275;48.914;12.566;2023-09-12T13:51:34;9.52;;;7.25;;
37409;SDS011;23275;48.914;12.566;2023-09-12T13:54:01;9.63;;;6.97;;
37409;SDS011;23275;48.914;12.566;2023-09-12T13:56:26;10.55;;;6.68;;
37409;SDS011;23275;48.914;12.566;2023-09-12T13:58:53;8.43;;;6.20;;
37409;SDS011;23275;48.914;12.566;2023-09-12T14:01:18;9.00;;;7.28;;
37409;SDS011;23275;48.914;12.566;2023-09-12T14:03:45;10.77;;;6.97;;
37409;SDS011;23275;48.914;12.566;2023-09-12T14:06:10;13.48;;;7.45;;
37409;SDS011;23275;48.914;12.566;2023-09-12T14:08:36;8.25;;;7.10;;
37409;SDS011;23275;48.914;12.566;2023-09-12T14:11:02;9.00;;;6.80;;
37409;SDS011;23275;48.914;12.566;2023-09-12T14:13:27;12.52;;;6.97;;
37409;SDS011;23275;48.914;12.566;2023-09-12T14:15:53;13.27;;;6.72;;
37409;SDS011;23275;48.914;12.566;2023-09-12T14:18:19;13.52;;;6.18;;
37409;SDS011;23275;48.914;12.566;2023-09-12T14:20:45;11.02;;;6.78;;
37409;SDS011;23275;48.914;12.566;2023-09-12T14:23:11;9.18;;;6.57;;
37409;SDS011;23275;48.914;12.566;2023-09-12T14:25:37;13.07;;;6.88;;
37409;SDS011;23275;48.914;12.566;2023-09-12T14:28:02;9.95;;;6.88;;
37409;SDS011;23275;48.914;12.566;2023-09-12T14:30:29;11.02;;;6.75;;
37409;SDS011;23275;48.914;12.566;2023-09-12T14:33:00;15.45;;;6.82;;
37409;SDS011;23275;48.914;12.566;2023-09-12T14:35:27;11.38;;;7.07;;
37409;SDS011;23275;48.914;12.566;2023-09-12T14:37:52;9.82;;;6.97;;